New Bavaria, Ohio
Current Conditions -  °F | °C
As of 3:53 PM on Sunday 21 Dec 2014 (Local Time) from KDFI Reporting Station
Haze Haze  
Wind Chill: 31°   Ceiling: 5500
Heat Index: 35°   Visibility: 6mi
Dew Point: 25°   Wind: 5mph
Humidity: 67%   Direction: 160°SSE
Pressure: 30.22"   Gusts: NA
Location:  41.2°N, 84.17°W
Report Text: KDFI 212053Z AUTO 16004KT 6SM HZ FEW022 OVC055 02/M04 A3022 RMK AO2 SLP240 T00171039 56013 TSNO
Loading
Personal Weather Stations






























Interactive Weather Map New forecast layout! Learn more

10-Day Weather Forecast

Advertisements
Track Severe Weather on mobile